createdAt,value
2022-08-05T00:00:18.700Z,3.45
2022-08-05T00:02:50.944Z,5.13
2022-08-05T00:06:03.226Z,4.28
2022-08-05T00:08:34.148Z,4.65
2022-08-05T00:10:56.967Z,3.97
2022-08-05T00:13:38.981Z,3.80
2022-08-05T00:16:08.759Z,4.18
2022-08-05T00:18:38.014Z,3.53
2022-08-05T00:21:06.403Z,4.65
2022-08-05T00:23:45.643Z,4.75
2022-08-05T00:26:22.310Z,4.55
2022-08-05T00:28:52.187Z,4.95
2022-08-05T00:31:53.063Z,4.97
2022-08-05T00:34:55.795Z,2.80
2022-08-05T00:37:20.097Z,3.28
2022-08-05T00:39:58.778Z,3.28
2022-08-05T00:42:34.539Z,3.80
2022-08-05T00:45:08.464Z,3.95
2022-08-05T00:47:53.337Z,7.25
2022-08-05T00:50:25.280Z,5.70
2022-08-05T00:52:55.066Z,4.32
2022-08-05T00:55:23.493Z,3.38
2022-08-05T00:58:11.389Z,3.72
2022-08-05T01:00:42.139Z,2.72
2022-08-05T01:03:22.278Z,4.93
2022-08-05T01:05:51.238Z,4.90
2022-08-05T01:08:41.838Z,4.47
2022-08-05T01:11:13.619Z,3.58
2022-08-05T01:13:59.081Z,6.38
2022-08-05T01:16:37.621Z,4.53
2022-08-05T01:19:17.613Z,4.47
2022-08-05T01:22:08.061Z,4.00
2022-08-05T01:24:57.919Z,3.35
2022-08-05T01:27:55.163Z,3.47
2022-08-05T01:30:34.534Z,6.43
2022-08-05T01:33:08.291Z,4.88
2022-08-05T01:35:51.540Z,5.10
2022-08-05T01:38:27.482Z,2.70
2022-08-05T01:40:59.753Z,4.03
2022-08-05T01:43:32.059Z,4.05
2022-08-05T01:46:07.150Z,5.53
2022-08-05T01:48:49.821Z,3.63
2022-08-05T01:51:19.556Z,12.02
2022-08-05T01:53:57.545Z,4.72
2022-08-05T01:58:11.344Z,5.07
2022-08-05T01:59:23.080Z,5.13
2022-08-05T02:01:54.847Z,3.42
2022-08-05T02:04:25.563Z,5.00
2022-08-05T02:06:53.992Z,5.22
2022-08-05T02:09:21.971Z,3.47
2022-08-05T02:11:59.963Z,4.18
2022-08-05T02:14:33.391Z,6.38
2022-08-05T02:17:07.838Z,6.45
2022-08-05T02:19:49.473Z,4.53
2022-08-05T02:22:26.381Z,6.88
2022-08-05T02:25:05.751Z,7.88
2022-08-05T02:27:57.976Z,5.57
2022-08-05T02:30:34.488Z,7.72
2022-08-05T02:33:03.847Z,5.43
2022-08-05T02:35:37.656Z,5.68
2022-08-05T02:38:19.479Z,6.97
2022-08-05T02:40:48.176Z,7.90
2022-08-05T02:43:17.835Z,7.70
2022-08-05T02:45:52.897Z,8.02
2022-08-05T02:48:29.496Z,6.30
2022-08-05T02:51:00.242Z,7.95
2022-08-05T02:53:29.112Z,10.48
2022-08-05T02:56:09.304Z,9.18
2022-08-05T02:58:37.956Z,8.27
2022-08-05T03:01:19.450Z,12.60
2022-08-05T03:04:03.146Z,10.65
2022-08-05T03:06:56.161Z,10.75
2022-08-05T03:09:27.194Z,8.73
2022-08-05T03:12:06.176Z,10.65
2022-08-05T03:14:45.790Z,10.75
2022-08-05T03:17:15.399Z,10.23
2022-08-05T03:19:45.594Z,11.93
2022-08-05T03:22:16.639Z,10.00
2022-08-05T03:24:50.656Z,9.73
2022-08-05T03:27:19.769Z,10.10
2022-08-05T03:30:07.801Z,9.40
2022-08-05T03:32:37.653Z,9.63
2022-08-05T03:35:06.784Z,10.82
2022-08-05T03:37:40.982Z,12.05
2022-08-05T03:40:15.532Z,10.93
2022-08-05T03:42:53.063Z,9.77
2022-08-05T03:45:23.355Z,11.82
2022-08-05T03:47:56.843Z,10.88
2022-08-05T03:50:26.991Z,12.35
2022-08-05T03:55:33.957Z,11.43
2022-08-05T03:56:09.949Z,11.70
2022-08-05T03:58:43.999Z,11.05
2022-08-05T04:01:14.279Z,10.52
2022-08-05T04:04:05.382Z,13.45
2022-08-05T04:06:36.395Z,12.38
2022-08-05T04:09:06.354Z,12.73
2022-08-05T04:11:50.636Z,12.52
2022-08-05T04:14:29.878Z,12.82
2022-08-05T04:17:00.651Z,14.48
2022-08-05T04:19:30.877Z,15.77
2022-08-05T04:22:09.352Z,13.48
2022-08-05T04:24:44.384Z,12.77
2022-08-05T04:27:13.101Z,13.27
2022-08-05T04:29:41.298Z,13.50
2022-08-05T04:32:09.272Z,15.38
2022-08-05T04:34:42.625Z,13.77
2022-08-05T04:37:10.982Z,13.55
2022-08-05T04:39:39.179Z,13.68
2022-08-05T04:42:09.157Z,14.15
2022-08-05T04:44:37.111Z,15.85
2022-08-05T04:47:09.409Z,15.18
2022-08-05T04:50:02.610Z,21.63
2022-08-05T04:52:28.110Z,17.95
2022-08-05T04:54:58.852Z,18.63
2022-08-05T04:57:29.229Z,18.85
2022-08-05T04:59:58.527Z,19.95
2022-08-05T05:02:37.402Z,20.25
2022-08-05T05:05:16.730Z,18.65
2022-08-05T05:07:56.663Z,18.60
2022-08-05T05:10:29.730Z,18.75
2022-08-05T05:12:57.821Z,20.25
2022-08-05T05:15:56.796Z,21.52
2022-08-05T05:18:15.131Z,21.75
2022-08-05T05:20:58.525Z,20.25
2022-08-05T05:23:26.551Z,20.40
2022-08-05T05:25:54.425Z,25.23
2022-08-05T05:28:22.238Z,24.85
2022-08-05T05:30:52.686Z,26.38
2022-08-05T05:33:23.343Z,23.65
2022-08-05T05:35:51.857Z,26.17
2022-08-05T05:38:27.287Z,28.55
2022-08-05T05:40:58.995Z,30.25
2022-08-05T05:43:54.267Z,31.77
2022-08-05T05:46:17.756Z,34.70
2022-08-05T05:48:49.177Z,37.95
2022-08-05T05:51:21.919Z,38.75
2022-08-05T05:53:57.251Z,37.72
2022-08-05T05:56:32.618Z,38.53
2022-08-05T05:59:05.374Z,37.40
2022-08-05T06:01:37.761Z,36.08
2022-08-05T06:04:08.057Z,35.65
2022-08-05T06:06:36.451Z,34.88
2022-08-05T06:09:07.487Z,35.38
2022-08-05T06:11:35.701Z,35.90
2022-08-05T06:14:07.444Z,29.90
2022-08-05T06:16:37.297Z,34.83
2022-08-05T06:19:07.577Z,28.90
2022-08-05T06:21:38.854Z,31.88
2022-08-05T06:24:12.811Z,29.80
2022-08-05T06:26:52.137Z,29.00
2022-08-05T06:29:43.194Z,30.08
2022-08-05T06:32:24.943Z,29.75
2022-08-05T06:34:56.090Z,29.52
2022-08-05T06:37:58.368Z,32.75
2022-08-05T06:40:18.161Z,32.65
2022-08-05T06:42:52.011Z,31.05
2022-08-05T06:45:44.467Z,26.75
2022-08-05T06:48:37.316Z,26.90
2022-08-05T06:50:58.387Z,25.88
2022-08-05T06:53:29.288Z,22.65
2022-08-05T06:55:59.468Z,24.25
2022-08-05T06:58:34.697Z,23.45
2022-08-05T07:01:05.189Z,25.33
2022-08-05T07:03:33.455Z,20.75
2022-08-05T07:06:05.832Z,21.80
2022-08-05T07:08:43.170Z,23.58
2022-08-05T07:11:17.502Z,22.75
2022-08-05T07:14:07.555Z,22.88
2022-08-05T07:18:09.381Z,22.70
2022-08-05T07:22:35.895Z,26.23
2022-08-05T07:25:23.258Z,27.02
2022-08-05T07:27:58.239Z,26.30
2022-08-05T07:30:32.820Z,27.67
2022-08-05T07:33:05.372Z,29.50
2022-08-05T07:36:01.695Z,29.35
2022-08-05T07:38:32.210Z,26.23
2022-08-05T07:42:06.759Z,23.17
2022-08-05T07:43:56.182Z,23.13
2022-08-05T07:46:26.170Z,25.50
2022-08-05T07:49:01.614Z,25.55
2022-08-05T07:51:36.625Z,26.58
2022-08-05T07:54:09.691Z,25.48
2022-08-05T07:57:00.265Z,26.48
2022-08-05T07:59:38.341Z,25.45
2022-08-05T08:02:15.210Z,26.60
2022-08-05T08:04:44.870Z,24.52
2022-08-05T08:07:13.225Z,27.83
2022-08-05T08:09:41.196Z,29.17
2022-08-05T08:12:20.229Z,33.47
2022-08-05T08:15:02.291Z,29.58
2022-08-05T08:17:31.190Z,24.42
2022-08-05T08:20:22.956Z,24.92
2022-08-05T08:22:52.105Z,23.58
2022-08-05T08:25:27.157Z,25.20
2022-08-05T08:28:18.027Z,25.67
2022-08-05T08:30:49.819Z,22.90
2022-08-05T08:33:19.205Z,21.20
2022-08-05T08:35:53.950Z,19.27
2022-08-05T08:38:35.087Z,18.50
2022-08-05T08:41:08.321Z,16.45
2022-08-05T08:45:16.389Z,16.58
2022-08-05T08:46:29.199Z,16.70
2022-08-05T08:49:06.121Z,18.83
2022-08-05T08:52:02.955Z,17.58
2022-08-05T08:54:33.705Z,18.92
2022-08-05T08:57:11.290Z,21.05
2022-08-05T08:59:41.911Z,21.98
2022-08-05T09:02:19.007Z,24.40
2022-08-05T09:05:16.994Z,23.33
2022-08-05T09:07:39.756Z,24.75
2022-08-05T09:10:27.827Z,23.45
2022-08-05T09:13:04.871Z,22.20
2022-08-05T09:15:36.925Z,20.83
2022-08-05T09:18:09.419Z,19.35
2022-08-05T09:20:38.288Z,18.05
2022-08-05T09:23:18.766Z,17.48
2022-08-05T09:26:03.017Z,18.20
2022-08-05T09:28:34.519Z,16.83
2022-08-05T09:31:22.386Z,17.42
2022-08-05T09:33:56.580Z,13.13
2022-08-05T09:36:27.744Z,13.52
2022-08-05T09:39:03.730Z,13.98
2022-08-05T09:42:00.483Z,13.73
2022-08-05T09:44:39.906Z,10.77
2022-08-05T09:47:15.793Z,12.60
2022-08-05T09:50:01.535Z,12.82
2022-08-05T09:52:32.365Z,14.23
2022-08-05T09:55:55.053Z,12.40
2022-08-05T09:57:54.676Z,13.00
2022-08-05T10:00:26.786Z,14.15
2022-08-05T10:02:58.608Z,12.38
2022-08-05T10:05:32.978Z,14.23
2022-08-05T10:08:36.552Z,10.15
2022-08-05T10:10:54.661Z,10.10
2022-08-05T10:13:45.817Z,9.48
2022-08-05T10:16:37.600Z,9.05
2022-08-05T10:19:10.187Z,8.82
2022-08-05T10:21:41.295Z,10.75
2022-08-05T10:24:13.244Z,9.98
2022-08-05T10:26:51.858Z,10.93
2022-08-05T10:29:23.965Z,7.80
2022-08-05T10:32:53.219Z,11.38
2022-08-05T10:35:00.873Z,7.45
2022-08-05T10:37:45.009Z,9.18
2022-08-05T10:40:28.312Z,7.85
2022-08-05T10:43:12.413Z,7.55
2022-08-05T10:45:42.332Z,8.40
2022-08-05T10:48:35.063Z,7.68
2022-08-05T10:51:21.724Z,9.23
2022-08-05T10:53:58.169Z,4.95
2022-08-05T10:56:28.673Z,6.13
2022-08-05T10:59:11.458Z,7.30
2022-08-05T11:01:55.643Z,5.50
2022-08-05T11:04:34.359Z,7.47
2022-08-05T11:07:06.965Z,8.13
2022-08-05T11:09:46.058Z,8.38
2022-08-05T11:12:50.882Z,8.13
2022-08-05T11:15:44.025Z,5.43
2022-08-05T11:18:30.074Z,5.30
2022-08-05T11:21:00.091Z,7.88
2022-08-05T11:24:02.722Z,8.25
2022-08-05T11:26:28.031Z,7.88
2022-08-05T11:29:06.659Z,6.55
2022-08-05T11:31:57.537Z,7.97
2022-08-05T11:34:39.900Z,7.20
2022-08-05T11:38:28.239Z,4.25
2022-08-05T11:41:15.457Z,6.15
2022-08-05T11:44:04.950Z,5.13
2022-08-05T11:46:37.898Z,5.10
2022-08-05T11:49:25.695Z,5.82
2022-08-05T11:51:54.327Z,5.57
2022-08-05T11:54:33.094Z,5.20
2022-08-05T11:57:08.661Z,5.15
2022-08-05T11:59:54.068Z,4.45
2022-08-05T12:02:31.482Z,4.03
2022-08-05T12:05:07.385Z,4.50
2022-08-05T12:08:08.670Z,4.47
2022-08-05T12:10:45.612Z,3.90
2022-08-05T12:13:27.809Z,3.25
2022-08-05T12:16:14.616Z,3.85
2022-08-05T12:18:49.578Z,3.28
2022-08-05T12:21:24.226Z,3.28
2022-08-05T12:24:11.325Z,3.42
2022-08-05T12:26:44.053Z,3.95
2022-08-05T12:29:16.437Z,4.47
2022-08-05T12:31:53.752Z,4.78
2022-08-05T12:34:25.952Z,4.07
2022-08-05T12:36:54.437Z,5.75
2022-08-05T12:39:28.287Z,3.50
2022-08-05T12:42:09.909Z,6.28
2022-08-05T12:44:48.010Z,3.33
2022-08-05T12:47:28.623Z,4.03
2022-08-05T12:50:02.153Z,3.05
2022-08-05T12:52:38.768Z,4.07
2022-08-05T12:55:22.174Z,3.60
2022-08-05T12:58:49.514Z,3.70
2022-08-05T13:02:00.182Z,7.50
2022-08-05T13:03:41.553Z,2.70
2022-08-05T13:06:17.243Z,9.95
2022-08-05T13:08:50.741Z,5.32
2022-08-05T13:11:47.073Z,3.05
2022-08-05T13:14:14.750Z,3.22
2022-08-05T13:16:50.799Z,4.40
2022-08-05T13:19:22.334Z,5.13
2022-08-05T13:21:52.510Z,6.03
2022-08-05T13:24:36.206Z,4.28
2022-08-05T13:27:22.912Z,2.97
2022-08-05T13:30:36.153Z,4.45
2022-08-05T13:32:50.600Z,3.33
2022-08-05T13:35:22.100Z,5.32
2022-08-05T13:38:04.908Z,6.63
2022-08-05T13:40:48.037Z,5.32
2022-08-05T13:43:21.822Z,4.38
2022-08-05T13:45:50.701Z,5.75
2022-08-05T13:48:57.850Z,4.88
2022-08-05T13:51:09.605Z,5.20
2022-08-05T13:53:47.969Z,4.03
2022-08-05T13:56:18.777Z,4.35
2022-08-05T13:58:52.727Z,3.35
2022-08-05T14:01:25.827Z,4.57
2022-08-05T14:04:21.915Z,4.05
2022-08-05T14:09:29.867Z,5.53
2022-08-05T14:12:03.976Z,7.60
2022-08-05T14:14:33.754Z,3.17
2022-08-05T14:17:01.873Z,4.90
2022-08-05T14:19:30.615Z,6.10
2022-08-05T14:22:18.455Z,4.65
2022-08-05T14:24:48.587Z,4.32
2022-08-05T14:27:18.780Z,3.13
2022-08-05T14:29:51.287Z,4.72
2022-08-05T14:32:27.074Z,3.97
2022-08-05T14:34:56.756Z,4.45
2022-08-05T14:37:45.425Z,3.40
2022-08-05T14:40:16.930Z,4.07
2022-08-05T14:42:45.027Z,2.92
2022-08-05T14:45:13.315Z,2.42
2022-08-05T14:48:03.162Z,3.58
2022-08-05T14:50:30.901Z,3.30
2022-08-05T14:52:59.568Z,3.60
2022-08-05T14:55:39.046Z,4.65
2022-08-05T14:58:12.125Z,1.80
2022-08-05T15:00:59.822Z,2.97
2022-08-05T15:03:34.042Z,3.47
2022-08-05T15:06:14.838Z,3.80
2022-08-05T15:09:01.295Z,4.43
2022-08-05T15:11:52.363Z,1.85
2022-08-05T15:14:34.595Z,6.70
2022-08-05T15:17:44.563Z,2.47
2022-08-05T15:19:57.920Z,2.60
2022-08-05T15:22:27.190Z,2.13
2022-08-05T15:24:55.578Z,1.92
2022-08-05T15:27:25.872Z,5.32
2022-08-05T15:29:54.289Z,4.75
2022-08-05T15:32:27.385Z,4.20
2022-08-05T15:34:57.085Z,3.33
2022-08-05T15:38:32.842Z,2.35
2022-08-05T15:40:59.683Z,4.13
2022-08-05T15:43:12.816Z,6.13
2022-08-05T15:45:47.822Z,3.05
2022-08-05T15:48:28.718Z,3.25
2022-08-05T15:50:56.638Z,2.83
2022-08-05T15:53:26.545Z,4.00
2022-08-05T15:56:09.141Z,2.70
2022-08-05T15:58:43.468Z,2.70
2022-08-05T16:01:16.372Z,3.00
2022-08-05T16:03:48.352Z,3.53
2022-08-05T16:06:19.864Z,3.30
2022-08-05T16:08:51.123Z,4.47
2022-08-05T16:11:40.076Z,3.15
2022-08-05T16:14:17.195Z,2.38
2022-08-05T16:16:46.300Z,4.47
2022-08-05T16:19:25.669Z,2.92
2022-08-05T16:22:03.382Z,2.33
2022-08-05T16:24:39.827Z,1.50
2022-08-05T16:27:16.176Z,2.13
2022-08-05T16:29:50.389Z,3.88
2022-08-05T16:32:28.453Z,2.78
2022-08-05T16:34:57.745Z,2.58
2022-08-05T16:38:03.341Z,2.25
2022-08-05T16:40:26.539Z,3.38
2022-08-05T16:42:57.348Z,1.52
2022-08-05T16:46:06.026Z,3.08
2022-08-05T16:48:25.124Z,1.17
2022-08-05T16:50:54.353Z,1.40
2022-08-05T16:53:32.397Z,3.00
2022-08-05T16:56:10.615Z,1.70
2022-08-05T16:58:40.753Z,2.00
2022-08-05T17:01:10.800Z,1.80
2022-08-05T17:03:38.892Z,2.50
2022-08-05T17:06:07.447Z,2.38
2022-08-05T17:08:52.125Z,1.48
2022-08-05T17:11:23.965Z,4.75
2022-08-05T17:14:00.293Z,1.88
2022-08-05T17:16:35.863Z,1.00
2022-08-05T17:19:07.402Z,0.70
2022-08-05T17:21:39.396Z,2.05
2022-08-05T17:24:18.438Z,1.08
2022-08-05T17:26:57.440Z,2.33
2022-08-05T17:29:33.083Z,2.05
2022-08-05T17:32:11.243Z,1.75
2022-08-05T17:34:44.402Z,2.10
2022-08-05T17:37:40.864Z,3.28
2022-08-05T17:40:02.139Z,2.67
2022-08-05T17:42:32.968Z,1.70
2022-08-05T17:45:10.079Z,2.30
2022-08-05T17:47:54.107Z,1.70
2022-08-05T17:50:28.190Z,5.10
2022-08-05T17:52:59.973Z,1.80
2022-08-05T17:55:34.333Z,1.98
2022-08-05T17:58:09.439Z,1.00
2022-08-05T18:00:44.407Z,0.88
2022-08-05T18:06:11.179Z,1.50
2022-08-05T18:08:44.142Z,1.83
2022-08-05T18:11:23.934Z,0.75
2022-08-05T18:14:00.676Z,2.80
2022-08-05T18:16:31.621Z,3.30
2022-08-05T18:19:00.808Z,1.33
2022-08-05T18:22:09.114Z,1.35
2022-08-05T18:24:16.340Z,1.88
2022-08-05T18:26:44.163Z,2.83
2022-08-05T18:29:12.029Z,2.13
2022-08-05T18:31:44.650Z,1.92
2022-08-05T18:34:14.848Z,2.17
2022-08-05T18:36:43.674Z,0.77
2022-08-05T18:39:42.264Z,3.05
2022-08-05T18:42:03.661Z,0.98
2022-08-05T18:44:35.353Z,1.33
2022-08-05T18:47:16.955Z,2.42
2022-08-05T18:50:03.407Z,2.45
2022-08-05T18:52:41.604Z,1.45
2022-08-05T18:55:21.448Z,1.85
2022-08-05T18:57:52.680Z,1.40
2022-08-05T19:00:29.044Z,1.80
2022-08-05T19:03:03.366Z,2.55
2022-08-05T19:06:11.128Z,2.80
2022-08-05T19:08:22.409Z,2.55
2022-08-05T19:10:59.623Z,4.18
2022-08-05T19:13:36.126Z,2.78
2022-08-05T19:16:25.366Z,1.55
2022-08-05T19:18:56.702Z,1.88
2022-08-05T19:21:27.533Z,1.60
2022-08-05T19:24:06.902Z,2.90
2022-08-05T19:26:54.847Z,4.40
2022-08-05T19:29:36.126Z,1.10
2022-08-05T19:32:08.559Z,3.22
2022-08-05T19:34:39.676Z,3.20
2022-08-05T19:37:10.498Z,2.67
2022-08-05T19:39:45.888Z,1.45
2022-08-05T19:42:35.803Z,1.10
2022-08-05T19:45:05.858Z,2.58
2022-08-05T19:47:34.688Z,3.22
2022-08-05T19:50:07.853Z,1.52
2022-08-05T19:52:41.707Z,1.50
2022-08-05T19:56:13.796Z,3.78
2022-08-05T19:58:07.104Z,2.20
2022-08-05T20:00:46.896Z,1.80
2022-08-05T20:03:15.219Z,1.60
2022-08-05T20:05:51.692Z,1.23
2022-08-05T20:08:24.227Z,2.35
2022-08-05T20:10:53.411Z,3.15
2022-08-05T20:13:55.060Z,2.67
2022-08-05T20:16:10.879Z,2.17
2022-08-05T20:18:38.715Z,2.53
2022-08-05T20:21:07.824Z,1.85
2022-08-05T20:23:51.301Z,0.70
2022-08-05T20:26:22.039Z,1.88
2022-08-05T20:28:55.569Z,2.83
2022-08-05T20:31:28.762Z,1.38
2022-08-05T20:34:05.738Z,2.88
2022-08-05T20:36:36.380Z,1.98
2022-08-05T20:39:10.371Z,3.42
2022-08-05T20:41:43.870Z,1.48
2022-08-05T20:44:19.223Z,1.88
2022-08-05T20:46:57.779Z,2.25
2022-08-05T20:49:26.174Z,2.10
2022-08-05T20:51:54.360Z,1.65
2022-08-05T20:54:25.257Z,2.63
2022-08-05T20:56:53.160Z,3.22
2022-08-05T20:59:27.055Z,1.65
2022-08-05T21:02:09.889Z,3.40
2022-08-05T21:04:38.386Z,2.17
2022-08-05T21:07:08.473Z,1.90
2022-08-05T21:09:38.300Z,2.80
2022-08-05T21:12:21.672Z,1.73
2022-08-05T21:14:53.993Z,2.60
2022-08-05T21:17:22.748Z,3.42
2022-08-05T21:19:52.027Z,1.77
2022-08-05T21:22:23.577Z,1.88
2022-08-05T21:24:54.303Z,1.45
2022-08-05T21:27:24.733Z,3.25
2022-08-05T21:29:55.816Z,1.25
2022-08-05T21:32:24.658Z,2.22
2022-08-05T21:35:09.031Z,1.77
2022-08-05T21:37:47.313Z,3.80
2022-08-05T21:40:23.296Z,2.55
2022-08-05T21:42:53.511Z,1.75
2022-08-05T21:45:24.728Z,3.10
2022-08-05T21:47:57.259Z,2.40
2022-08-05T21:50:26.286Z,2.42
2022-08-05T21:52:58.896Z,1.52
2022-08-05T21:56:01.720Z,2.15
2022-08-05T21:58:31.965Z,3.72
2022-08-05T22:01:00.779Z,1.20
2022-08-05T22:03:52.738Z,2.90
2022-08-05T22:06:22.833Z,0.88
2022-08-05T22:08:52.144Z,1.20
2022-08-05T22:11:34.462Z,1.75
2022-08-05T22:14:19.471Z,1.38
2022-08-05T22:16:56.048Z,1.50
2022-08-05T22:20:02.747Z,2.20
2022-08-05T22:22:15.425Z,2.20
2022-08-05T22:25:01.662Z,1.05
2022-08-05T22:28:09.782Z,1.45
2022-08-05T22:30:35.408Z,2.42
2022-08-05T22:33:03.833Z,2.63
2022-08-05T22:35:47.743Z,4.40
2022-08-05T22:38:16.722Z,2.78
2022-08-05T22:40:49.998Z,2.85
2022-08-05T22:43:36.944Z,2.75
2022-08-05T22:46:13.181Z,2.97
2022-08-05T22:48:49.025Z,1.95
2022-08-05T22:51:22.647Z,1.90
2022-08-05T22:53:51.994Z,3.25
2022-08-05T22:56:30.768Z,2.55
2022-08-05T22:59:03.219Z,5.53
2022-08-05T23:02:04.630Z,4.03
2022-08-05T23:04:34.348Z,1.65
2022-08-05T23:07:02.164Z,2.97
2022-08-05T23:09:57.252Z,2.60
2022-08-05T23:12:18.446Z,3.47
2022-08-05T23:14:53.136Z,2.28
2022-08-05T23:17:35.037Z,2.78
2022-08-05T23:20:10.425Z,3.92
2022-08-05T23:22:47.686Z,5.03
2022-08-05T23:25:54.854Z,2.80
2022-08-05T23:28:07.120Z,3.65
2022-08-05T23:30:39.820Z,1.58
2022-08-05T23:33:15.932Z,3.05
2022-08-05T23:35:50.862Z,1.92
2022-08-05T23:38:19.136Z,1.90
2022-08-05T23:40:49.852Z,2.08
2022-08-05T23:43:25.685Z,1.75
2022-08-05T23:46:19.881Z,1.65
2022-08-05T23:49:00.942Z,3.17
2022-08-05T23:51:54.013Z,3.15
2022-08-05T23:54:25.878Z,1.73
2022-08-05T23:56:56.005Z,4.13
2022-08-05T23:59:37.349Z,5.28
